createdAt,value
2022-11-17T00:03:04.460Z,10.78
2022-11-17T00:07:08.074Z,10.80
2022-11-17T00:11:13.124Z,10.80
2022-11-17T00:15:16.793Z,10.81
2022-11-17T00:19:37.602Z,10.82
2022-11-17T00:23:50.713Z,10.81
2022-11-17T00:27:55.470Z,10.80
2022-11-17T00:36:08.487Z,10.75
2022-11-17T00:40:13.250Z,10.73
2022-11-17T00:44:18.808Z,10.76
2022-11-17T00:48:21.766Z,10.76
2022-11-17T00:52:25.328Z,10.78
2022-11-17T00:56:29.522Z,10.80
2022-11-17T01:00:34.169Z,10.83
2022-11-17T01:04:37.836Z,10.83
2022-11-17T01:08:41.299Z,10.86
2022-11-17T01:12:44.362Z,10.86
2022-11-17T01:16:49.786Z,10.87
2022-11-17T01:20:53.112Z,10.86
2022-11-17T01:24:56.140Z,10.88
2022-11-17T01:29:01.013Z,10.88
2022-11-17T01:33:06.154Z,10.89
2022-11-17T01:37:21.598Z,10.87
2022-11-17T01:41:26.965Z,10.87
2022-11-17T01:45:30.518Z,10.86
2022-11-17T01:49:35.288Z,10.87
2022-11-17T01:53:39.658Z,10.85
2022-11-17T01:57:49.011Z,10.87
2022-11-17T02:01:57.203Z,10.87
2022-11-17T02:06:07.842Z,10.86
2022-11-17T02:10:11.001Z,10.84
2022-11-17T02:14:14.887Z,10.83
2022-11-17T02:18:18.811Z,10.85
2022-11-17T02:22:55.550Z,10.86
2022-11-17T02:27:37.708Z,10.87
2022-11-17T02:31:47.787Z,10.85
2022-11-17T02:35:57.014Z,10.81
2022-11-17T02:40:05.574Z,10.84
2022-11-17T02:44:14.371Z,10.83
2022-11-17T02:48:24.225Z,10.82
2022-11-17T02:52:29.372Z,10.75
2022-11-17T02:56:32.364Z,10.74
2022-11-17T03:00:45.586Z,10.72
2022-11-17T03:05:02.020Z,10.70
2022-11-17T03:09:21.710Z,10.68
2022-11-17T03:13:32.751Z,10.66
2022-11-17T03:17:48.186Z,10.62
2022-11-17T03:21:58.242Z,10.60
2022-11-17T03:26:04.263Z,10.59
2022-11-17T03:30:09.706Z,10.59
2022-11-17T03:34:19.127Z,10.54
2022-11-17T03:38:28.616Z,10.62
2022-11-17T03:42:35.957Z,10.63
2022-11-17T03:51:10.636Z,10.63
2022-11-17T03:55:15.264Z,10.60
2022-11-17T03:59:24.193Z,10.57
2022-11-17T04:03:31.811Z,10.49
2022-11-17T04:07:40.683Z,10.42
2022-11-17T04:12:00.996Z,10.36
2022-11-17T04:16:04.597Z,10.30
2022-11-17T04:20:09.255Z,10.25
2022-11-17T04:24:14.456Z,10.19
2022-11-17T04:28:34.855Z,10.14
2022-11-17T04:32:38.760Z,10.09
2022-11-17T04:36:46.514Z,10.07
2022-11-17T04:41:05.377Z,10.02
2022-11-17T04:45:09.575Z,10.04
2022-11-17T04:49:13.595Z,10.01
2022-11-17T04:53:16.584Z,9.99
2022-11-17T04:57:21.420Z,9.99
2022-11-17T05:01:27.819Z,9.95
2022-11-17T05:05:31.420Z,9.96
2022-11-17T05:09:34.578Z,9.96
2022-11-17T05:13:38.603Z,9.96
2022-11-17T05:17:41.805Z,9.95
2022-11-17T05:21:45.608Z,9.93
2022-11-17T05:25:48.948Z,9.90
2022-11-17T05:29:53.711Z,9.88
2022-11-17T05:33:57.101Z,9.83
2022-11-17T05:38:00.609Z,9.81
2022-11-17T05:42:03.705Z,9.79
2022-11-17T05:46:08.742Z,9.77
2022-11-17T05:50:11.994Z,9.76
2022-11-17T05:54:15.691Z,9.75
2022-11-17T05:58:23.828Z,9.75
2022-11-17T06:02:33.579Z,9.74
2022-11-17T06:06:38.885Z,9.73
2022-11-17T06:10:42.602Z,9.73
2022-11-17T06:14:46.639Z,9.78
2022-11-17T06:18:55.195Z,9.81
2022-11-17T06:23:02.195Z,9.84
2022-11-17T06:27:05.968Z,9.86
2022-11-17T06:31:09.635Z,9.87
2022-11-17T06:35:16.717Z,9.89
2022-11-17T06:39:20.180Z,9.90
2022-11-17T06:43:23.634Z,9.92
2022-11-17T06:47:27.186Z,9.94
2022-11-17T06:51:31.677Z,9.97
2022-11-17T06:55:35.890Z,9.99
2022-11-17T06:59:39.402Z,10.02
2022-11-17T07:03:44.034Z,10.06
2022-11-17T07:07:49.023Z,10.12
2022-11-17T07:11:52.612Z,10.16
2022-11-17T07:15:55.693Z,10.20
2022-11-17T07:19:59.247Z,10.24
2022-11-17T07:24:03.733Z,10.28
2022-11-17T07:28:06.997Z,10.26
2022-11-17T07:32:14.743Z,10.28
2022-11-17T07:36:18.149Z,10.26
2022-11-17T07:40:23.063Z,10.27
2022-11-17T07:44:26.463Z,10.30
2022-11-17T07:48:29.949Z,10.33
2022-11-17T07:52:37.248Z,10.37
2022-11-17T07:56:45.851Z,10.45
2022-11-17T08:00:49.566Z,10.51
2022-11-17T08:04:53.333Z,10.59
2022-11-17T08:08:57.176Z,10.66
2022-11-17T08:13:02.616Z,10.72
2022-11-17T08:17:06.161Z,10.74
2022-11-17T08:21:10.673Z,10.77
2022-11-17T08:25:14.412Z,10.79
2022-11-17T08:29:18.859Z,10.83
2022-11-17T08:33:22.072Z,10.86
2022-11-17T08:37:25.173Z,10.91
2022-11-17T08:41:28.729Z,10.92
2022-11-17T08:45:33.538Z,10.96
2022-11-17T08:49:37.122Z,10.97
2022-11-17T08:53:41.573Z,11.01
2022-11-17T08:57:45.521Z,11.05
2022-11-17T09:01:49.930Z,11.11
2022-11-17T09:05:53.675Z,11.18
2022-11-17T09:10:00.464Z,11.30
2022-11-17T09:14:04.170Z,11.45
2022-11-17T09:18:08.612Z,11.62
2022-11-17T09:22:12.152Z,11.74
2022-11-17T09:26:17.202Z,11.86
2022-11-17T09:30:22.786Z,11.94
2022-11-17T09:34:27.706Z,11.97
2022-11-17T09:38:31.311Z,11.93
2022-11-17T09:42:40.511Z,11.92
2022-11-17T09:46:56.880Z,11.88
2022-11-17T09:51:03.286Z,11.87
2022-11-17T09:55:20.432Z,11.88
2022-11-17T09:59:27.268Z,11.90
2022-11-17T10:03:37.555Z,11.91
2022-11-17T10:07:50.963Z,11.92
2022-11-17T10:11:56.070Z,11.88
2022-11-17T10:16:04.141Z,11.87
2022-11-17T10:20:16.992Z,11.89
2022-11-17T10:24:37.735Z,11.95
2022-11-17T10:28:41.322Z,12.01
2022-11-17T10:32:51.340Z,12.09
2022-11-17T10:36:55.031Z,12.18
2022-11-17T10:41:03.168Z,12.30
2022-11-17T10:45:08.122Z,12.40
2022-11-17T10:49:26.128Z,12.50
2022-11-17T10:53:44.931Z,12.60
2022-11-17T10:57:53.282Z,12.67
2022-11-17T11:01:56.759Z,12.72
2022-11-17T11:06:22.765Z,12.79
2022-11-17T11:10:33.390Z,12.92
2022-11-17T11:14:42.092Z,13.06
2022-11-17T11:18:46.351Z,13.10
2022-11-17T11:22:58.614Z,13.20
2022-11-17T11:27:11.033Z,13.23
2022-11-17T11:31:29.734Z,13.29
2022-11-17T11:35:57.012Z,13.33
2022-11-17T11:40:11.306Z,13.28
2022-11-17T11:44:32.775Z,13.28
2022-11-17T11:48:41.786Z,13.30
2022-11-17T11:52:50.247Z,13.34
2022-11-17T11:56:55.394Z,13.30
2022-11-17T12:01:06.369Z,13.38
2022-11-17T12:05:20.532Z,13.44
2022-11-17T12:09:48.315Z,13.48
2022-11-17T12:13:54.464Z,13.55
2022-11-17T12:18:01.652Z,13.63
2022-11-17T12:22:06.904Z,13.67
2022-11-17T12:26:23.593Z,13.70
2022-11-17T12:30:54.624Z,13.64
2022-11-17T12:35:26.576Z,13.65
2022-11-17T12:40:10.284Z,13.62
2022-11-17T12:44:50.374Z,13.68
2022-11-17T12:49:06.694Z,13.82
2022-11-17T12:53:25.755Z,14.04
2022-11-17T12:57:33.757Z,14.24
2022-11-17T13:01:46.139Z,14.42
2022-11-17T13:06:33.655Z,14.56
2022-11-17T13:10:33.365Z,14.64
2022-11-17T13:14:38.979Z,14.66
2022-11-17T13:18:44.790Z,14.60
2022-11-17T13:23:00.602Z,14.50
2022-11-17T13:27:07.490Z,14.33
2022-11-17T13:31:15.089Z,14.13
2022-11-17T13:35:23.577Z,13.93
2022-11-17T13:39:28.692Z,13.73
2022-11-17T13:43:40.450Z,13.61
2022-11-17T13:47:47.453Z,13.52
2022-11-17T13:51:52.472Z,13.44
2022-11-17T13:55:56.308Z,13.38
2022-11-17T14:00:03.508Z,13.35
2022-11-17T14:04:27.235Z,13.30
2022-11-17T14:08:34.248Z,13.24
2022-11-17T14:12:38.905Z,13.17
2022-11-17T14:16:43.855Z,13.09
2022-11-17T14:20:47.134Z,13.03
2022-11-17T14:24:52.363Z,13.02
2022-11-17T14:29:02.114Z,13.03
2022-11-17T14:33:12.119Z,13.00
2022-11-17T14:37:16.905Z,12.98
2022-11-17T14:41:22.668Z,12.92
2022-11-17T14:45:25.764Z,12.84
2022-11-17T14:49:29.446Z,12.69
2022-11-17T14:53:32.525Z,12.60
2022-11-17T14:57:38.704Z,12.42
2022-11-17T15:01:43.005Z,12.38
2022-11-17T15:05:47.260Z,12.29
2022-11-17T15:09:50.702Z,12.18
2022-11-17T15:13:55.444Z,12.12
2022-11-17T15:17:58.536Z,12.05
2022-11-17T15:22:01.696Z,11.89
2022-11-17T15:26:06.741Z,11.80
2022-11-17T15:30:12.546Z,11.79
2022-11-17T15:34:19.987Z,11.69
2022-11-17T15:38:23.445Z,11.67
2022-11-17T15:42:27.129Z,11.64
2022-11-17T15:46:31.573Z,11.64
2022-11-17T15:50:35.176Z,11.62
2022-11-17T15:54:38.367Z,11.62
2022-11-17T15:58:42.847Z,11.61
2022-11-17T16:02:47.991Z,11.57
2022-11-17T16:06:51.268Z,11.55
2022-11-17T16:10:54.395Z,11.53
2022-11-17T16:14:57.616Z,11.51
2022-11-17T16:19:02.805Z,11.49
2022-11-17T16:23:06.335Z,11.47
2022-11-17T16:27:13.230Z,11.44
2022-11-17T16:31:18.348Z,11.41
2022-11-17T16:35:22.882Z,11.40
2022-11-17T16:39:26.413Z,11.35
2022-11-17T16:43:29.594Z,11.31
2022-11-17T16:47:35.248Z,11.25
2022-11-17T16:51:39.995Z,11.16
2022-11-17T16:55:43.506Z,11.05
2022-11-17T16:59:47.019Z,10.93
2022-11-17T17:03:50.312Z,10.81
2022-11-17T17:07:55.284Z,10.69
2022-11-17T17:11:58.925Z,10.59
2022-11-17T17:16:04.401Z,10.52
2022-11-17T17:20:09.457Z,10.45
2022-11-17T17:24:15.379Z,10.38
2022-11-17T17:28:18.690Z,10.31
2022-11-17T17:32:22.209Z,10.25
2022-11-17T17:36:26.364Z,10.20
2022-11-17T17:40:31.987Z,10.13
2022-11-17T17:44:35.664Z,10.06
2022-11-17T17:48:40.516Z,9.98
2022-11-17T17:52:44.188Z,9.90
2022-11-17T17:56:50.016Z,9.84
2022-11-17T18:00:53.986Z,9.77
2022-11-17T18:04:58.172Z,9.72
2022-11-17T18:09:01.445Z,9.68
2022-11-17T18:13:10.628Z,9.67
2022-11-17T18:17:14.667Z,9.63
2022-11-17T18:21:20.592Z,9.59
2022-11-17T18:25:24.188Z,9.54
2022-11-17T18:29:29.291Z,9.49
2022-11-17T18:33:34.944Z,9.42
2022-11-17T18:37:38.574Z,9.31
2022-11-17T18:41:42.221Z,9.24
2022-11-17T18:45:47.949Z,9.16
2022-11-17T18:49:51.554Z,9.10
2022-11-17T18:54:00.602Z,9.03
2022-11-17T18:58:14.426Z,9.01
2022-11-17T19:02:20.231Z,9.01
2022-11-17T19:06:28.331Z,9.03
2022-11-17T19:10:32.705Z,9.05
2022-11-17T19:14:36.935Z,9.02
2022-11-17T19:18:42.486Z,9.00
2022-11-17T19:22:46.399Z,8.95
2022-11-17T19:26:51.241Z,8.91
2022-11-17T19:30:54.810Z,8.83
2022-11-17T19:35:11.832Z,8.76
2022-11-17T19:39:21.561Z,8.65
2022-11-17T19:43:25.364Z,8.56
2022-11-17T19:47:29.573Z,8.48
2022-11-17T19:51:37.418Z,8.43
2022-11-17T19:55:40.778Z,8.37
2022-11-17T19:59:44.569Z,8.33
2022-11-17T20:03:49.158Z,8.29
2022-11-17T20:07:53.811Z,8.28
2022-11-17T20:11:57.832Z,8.30
2022-11-17T20:16:06.179Z,8.37
2022-11-17T20:20:13.787Z,8.45
2022-11-17T20:24:18.849Z,8.55
2022-11-17T20:28:22.314Z,8.61
2022-11-17T20:32:25.645Z,8.65
2022-11-17T20:36:33.608Z,8.67
2022-11-17T20:40:41.172Z,8.68
2022-11-17T20:44:45.337Z,8.69
2022-11-17T20:48:50.138Z,8.71
2022-11-17T20:52:53.964Z,8.73
2022-11-17T20:56:58.840Z,8.73
2022-11-17T21:01:10.168Z,8.69
2022-11-17T21:05:13.451Z,8.65
2022-11-17T21:09:17.322Z,8.61
2022-11-17T21:13:25.031Z,8.59
2022-11-17T21:17:45.290Z,8.53
2022-11-17T21:21:50.734Z,8.47
2022-11-17T21:25:53.894Z,8.44
2022-11-17T21:29:59.578Z,8.43
2022-11-17T21:34:04.410Z,8.38
2022-11-17T21:38:11.454Z,8.35
2022-11-17T21:42:18.225Z,8.34
2022-11-17T21:46:26.843Z,8.33
2022-11-17T21:50:30.247Z,8.33
2022-11-17T21:54:33.962Z,8.36
2022-11-17T21:58:37.796Z,8.42
2022-11-17T22:02:42.927Z,8.52
2022-11-17T22:06:46.649Z,8.62
2022-11-17T22:10:50.250Z,8.70
2022-11-17T22:14:53.551Z,8.77
2022-11-17T22:18:58.497Z,8.85
2022-11-17T22:23:01.764Z,8.90
2022-11-17T22:27:07.218Z,8.94
2022-11-17T22:31:11.227Z,9.01
2022-11-17T22:35:16.651Z,9.08
2022-11-17T22:39:20.023Z,9.13
2022-11-17T22:43:23.750Z,9.18
2022-11-17T22:47:27.068Z,9.24
2022-11-17T22:51:49.812Z,9.31
2022-11-17T22:55:53.090Z,9.36
2022-11-17T22:59:56.833Z,9.41
2022-11-17T23:04:00.237Z,9.43
2022-11-17T23:08:09.567Z,9.49
2022-11-17T23:12:13.163Z,9.52
2022-11-17T23:16:16.192Z,9.55
2022-11-17T23:20:21.134Z,9.58
2022-11-17T23:24:25.695Z,9.60
2022-11-17T23:28:28.867Z,9.60
2022-11-17T23:32:32.216Z,9.62
2022-11-17T23:36:35.913Z,9.62
2022-11-17T23:40:40.521Z,9.63
2022-11-17T23:44:44.485Z,9.63
2022-11-17T23:48:47.873Z,9.62
2022-11-17T23:52:51.515Z,9.62
2022-11-17T23:56:56.750Z,9.63
